sensor_id;sensor_type;location;lat;lon;timestamp;P1;durP1;ratioP1;P2;durP2;ratioP2
23444;SDS011;11895;48.738;9.320;2023-02-21T00:02:37;10.40;;;4.10;;
23444;SDS011;11895;48.738;9.320;2023-02-21T00:05:24;10.05;;;4.57;;
23444;SDS011;11895;48.738;9.320;2023-02-21T00:08:10;9.40;;;4.00;;
23444;SDS011;11895;48.738;9.320;2023-02-21T00:10:56;10.13;;;4.10;;
23444;SDS011;11895;48.738;9.320;2023-02-21T00:13:42;13.45;;;4.68;;
23444;SDS011;11895;48.738;9.320;2023-02-21T00:16:28;14.43;;;5.03;;
23444;SDS011;11895;48.738;9.320;2023-02-21T00:19:15;11.38;;;4.88;;
23444;SDS011;11895;48.738;9.320;2023-02-21T00:22:01;13.68;;;5.18;;
23444;SDS011;11895;48.738;9.320;2023-02-21T00:24:47;12.48;;;5.18;;
23444;SDS011;11895;48.738;9.320;2023-02-21T00:27:33;8.75;;;4.78;;
23444;SDS011;11895;48.738;9.320;2023-02-21T00:30:19;12.98;;;5.60;;
23444;SDS011;11895;48.738;9.320;2023-02-21T00:33:06;12.48;;;5.55;;
23444;SDS011;11895;48.738;9.320;2023-02-21T00:35:51;11.00;;;5.68;;
23444;SDS011;11895;48.738;9.320;2023-02-21T00:38:38;15.07;;;6.63;;
23444;SDS011;11895;48.738;9.320;2023-02-21T00:41:24;14.90;;;5.90;;
23444;SDS011;11895;48.738;9.320;2023-02-21T00:44:10;13.63;;;5.97;;
23444;SDS011;11895;48.738;9.320;2023-02-21T00:46:56;13.80;;;6.00;;
23444;SDS011;11895;48.738;9.320;2023-02-21T00:49:44;14.57;;;5.90;;
23444;SDS011;11895;48.738;9.320;2023-02-21T00:52:30;15.50;;;6.28;;
23444;SDS011;11895;48.738;9.320;2023-02-21T00:55:16;12.15;;;6.40;;
23444;SDS011;11895;48.738;9.320;2023-02-21T00:58:02;16.02;;;7.03;;
23444;SDS011;11895;48.738;9.320;2023-02-21T01:00:52;14.30;;;7.07;;
23444;SDS011;11895;48.738;9.320;2023-02-21T01:03:39;13.98;;;5.95;;
23444;SDS011;11895;48.738;9.320;2023-02-21T01:06:25;14.40;;;6.38;;
23444;SDS011;11895;48.738;9.320;2023-02-21T01:09:17;13.07;;;6.18;;
23444;SDS011;11895;48.738;9.320;2023-02-21T01:12:03;14.15;;;6.30;;
23444;SDS011;11895;48.738;9.320;2023-02-21T01:14:49;15.07;;;6.10;;
23444;SDS011;11895;48.738;9.320;2023-02-21T01:17:35;14.50;;;6.50;;
23444;SDS011;11895;48.738;9.320;2023-02-21T01:20:21;13.45;;;6.40;;
23444;SDS011;11895;48.738;9.320;2023-02-21T01:23:07;14.30;;;5.50;;
23444;SDS011;11895;48.738;9.320;2023-02-21T01:25:53;16.38;;;6.00;;
23444;SDS011;11895;48.738;9.320;2023-02-21T01:28:39;17.92;;;6.47;;
23444;SDS011;11895;48.738;9.320;2023-02-21T01:31:25;16.98;;;6.38;;
23444;SDS011;11895;48.738;9.320;2023-02-21T01:34:11;20.75;;;7.63;;
23444;SDS011;11895;48.738;9.320;2023-02-21T01:37:02;19.42;;;7.22;;
23444;SDS011;11895;48.738;9.320;2023-02-21T01:39:48;19.10;;;7.75;;
23444;SDS011;11895;48.738;9.320;2023-02-21T01:42:35;14.60;;;7.20;;
23444;SDS011;11895;48.738;9.320;2023-02-21T01:48:08;14.18;;;7.07;;
23444;SDS011;11895;48.738;9.320;2023-02-21T01:51:02;15.07;;;6.45;;
23444;SDS011;11895;48.738;9.320;2023-02-21T01:56:37;12.52;;;6.47;;
23444;SDS011;11895;48.738;9.320;2023-02-21T01:59:25;14.55;;;6.57;;
23444;SDS011;11895;48.738;9.320;2023-02-21T02:05:20;15.73;;;7.07;;
23444;SDS011;11895;48.738;9.320;2023-02-21T02:08:08;14.20;;;6.18;;
23444;SDS011;11895;48.738;9.320;2023-02-21T02:11:00;12.63;;;6.28;;
23444;SDS011;11895;48.738;9.320;2023-02-21T02:17:53;17.73;;;5.93;;
23444;SDS011;11895;48.738;9.320;2023-02-21T02:24:03;14.10;;;6.25;;
23444;SDS011;11895;48.738;9.320;2023-02-21T02:29:26;15.65;;;6.65;;
23444;SDS011;11895;48.738;9.320;2023-02-21T02:35:49;13.13;;;6.65;;
23444;SDS011;11895;48.738;9.320;2023-02-21T02:38:29;16.00;;;6.93;;
23444;SDS011;11895;48.738;9.320;2023-02-21T02:46:58;12.02;;;6.20;;
23444;SDS011;11895;48.738;9.320;2023-02-21T02:49:31;12.35;;;5.82;;
23444;SDS011;11895;48.738;9.320;2023-02-21T02:52:03;16.05;;;7.25;;
23444;SDS011;11895;48.738;9.320;2023-02-21T02:54:33;16.30;;;6.60;;
23444;SDS011;11895;48.738;9.320;2023-02-21T02:57:02;14.38;;;6.50;;
23444;SDS011;11895;48.738;9.320;2023-02-21T02:59:37;22.08;;;10.15;;
23444;SDS011;11895;48.738;9.320;2023-02-21T03:02:34;16.10;;;8.18;;
23444;SDS011;11895;48.738;9.320;2023-02-21T03:05:18;16.35;;;7.57;;
23444;SDS011;11895;48.738;9.320;2023-02-21T03:11:09;14.43;;;6.68;;
23444;SDS011;11895;48.738;9.320;2023-02-21T03:13:52;18.85;;;7.45;;
23444;SDS011;11895;48.738;9.320;2023-02-21T03:16:32;14.73;;;8.20;;
23444;SDS011;11895;48.738;9.320;2023-02-21T03:19:30;18.67;;;6.90;;
23444;SDS011;11895;48.738;9.320;2023-02-21T03:22:09;15.20;;;6.95;;
23444;SDS011;11895;48.738;9.320;2023-02-21T03:24:41;14.73;;;7.63;;
23444;SDS011;11895;48.738;9.320;2023-02-21T03:27:12;17.88;;;6.93;;
23444;SDS011;11895;48.738;9.320;2023-02-21T03:29:45;17.73;;;7.60;;
23444;SDS011;11895;48.738;9.320;2023-02-21T03:32:15;16.23;;;7.60;;
23444;SDS011;11895;48.738;9.320;2023-02-21T03:34:51;16.85;;;6.68;;
23444;SDS011;11895;48.738;9.320;2023-02-21T03:37:28;15.60;;;7.72;;
23444;SDS011;11895;48.738;9.320;2023-02-21T03:40:22;13.98;;;6.60;;
23444;SDS011;11895;48.738;9.320;2023-02-21T03:42:56;15.43;;;6.97;;
23444;SDS011;11895;48.738;9.320;2023-02-21T03:45:31;18.95;;;7.60;;
23444;SDS011;11895;48.738;9.320;2023-02-21T03:48:06;18.05;;;7.35;;
23444;SDS011;11895;48.738;9.320;2023-02-21T03:50:36;15.02;;;7.10;;
23444;SDS011;11895;48.738;9.320;2023-02-21T03:53:04;16.77;;;6.85;;
23444;SDS011;11895;48.738;9.320;2023-02-21T03:55:36;14.02;;;7.07;;
23444;SDS011;11895;48.738;9.320;2023-02-21T03:58:09;17.40;;;8.43;;
23444;SDS011;11895;48.738;9.320;2023-02-21T04:00:37;13.73;;;7.50;;
23444;SDS011;11895;48.738;9.320;2023-02-21T04:03:05;17.48;;;7.55;;
23444;SDS011;11895;48.738;9.320;2023-02-21T04:05:39;22.63;;;8.48;;
23444;SDS011;11895;48.738;9.320;2023-02-21T04:08:08;15.98;;;8.20;;
23444;SDS011;11895;48.738;9.320;2023-02-21T04:10:37;16.70;;;8.48;;
23444;SDS011;11895;48.738;9.320;2023-02-21T04:13:18;15.15;;;7.78;;
23444;SDS011;11895;48.738;9.320;2023-02-21T04:15:48;16.95;;;8.43;;
23444;SDS011;11895;48.738;9.320;2023-02-21T04:18:16;17.40;;;8.55;;
23444;SDS011;11895;48.738;9.320;2023-02-21T04:20:46;16.42;;;8.18;;
23444;SDS011;11895;48.738;9.320;2023-02-21T04:23:17;14.95;;;7.53;;
23444;SDS011;11895;48.738;9.320;2023-02-21T04:25:47;16.75;;;8.20;;
23444;SDS011;11895;48.738;9.320;2023-02-21T04:28:22;17.80;;;7.65;;
23444;SDS011;11895;48.738;9.320;2023-02-21T04:30:50;18.10;;;8.48;;
23444;SDS011;11895;48.738;9.320;2023-02-21T04:33:19;13.52;;;7.15;;
23444;SDS011;11895;48.738;9.320;2023-02-21T04:35:46;20.25;;;8.27;;
23444;SDS011;11895;48.738;9.320;2023-02-21T04:38:22;16.58;;;8.65;;
23444;SDS011;11895;48.738;9.320;2023-02-21T04:40:51;15.93;;;8.23;;
23444;SDS011;11895;48.738;9.320;2023-02-21T04:43:18;14.27;;;7.60;;
23444;SDS011;11895;48.738;9.320;2023-02-21T04:45:47;16.08;;;8.00;;
23444;SDS011;11895;48.738;9.320;2023-02-21T04:48:16;13.18;;;7.25;;
23444;SDS011;11895;48.738;9.320;2023-02-21T04:50:44;18.50;;;8.02;;
23444;SDS011;11895;48.738;9.320;2023-02-21T04:53:12;16.90;;;7.05;;
23444;SDS011;11895;48.738;9.320;2023-02-21T04:55:40;12.38;;;6.55;;
23444;SDS011;11895;48.738;9.320;2023-02-21T04:58:08;16.73;;;6.68;;
23444;SDS011;11895;48.738;9.320;2023-02-21T05:00:36;20.42;;;7.63;;
23444;SDS011;11895;48.738;9.320;2023-02-21T05:03:03;14.57;;;7.00;;
23444;SDS011;11895;48.738;9.320;2023-02-21T05:05:31;19.58;;;7.10;;
23444;SDS011;11895;48.738;9.320;2023-02-21T05:07:58;14.57;;;6.65;;
23444;SDS011;11895;48.738;9.320;2023-02-21T05:10:26;16.70;;;7.15;;
23444;SDS011;11895;48.738;9.320;2023-02-21T05:13:10;10.77;;;6.18;;
23444;SDS011;11895;48.738;9.320;2023-02-21T05:15:39;16.92;;;6.78;;
23444;SDS011;11895;48.738;9.320;2023-02-21T05:18:07;16.13;;;6.93;;
23444;SDS011;11895;48.738;9.320;2023-02-21T05:20:34;12.52;;;6.30;;
23444;SDS011;11895;48.738;9.320;2023-02-21T05:23:02;13.30;;;5.97;;
23444;SDS011;11895;48.738;9.320;2023-02-21T05:25:39;14.77;;;6.57;;
23444;SDS011;11895;48.738;9.320;2023-02-21T05:28:07;16.25;;;5.80;;
23444;SDS011;11895;48.738;9.320;2023-02-21T05:30:34;24.70;;;7.20;;
23444;SDS011;11895;48.738;9.320;2023-02-21T05:33:02;10.60;;;5.97;;
23444;SDS011;11895;48.738;9.320;2023-02-21T05:35:30;12.45;;;6.60;;
23444;SDS011;11895;48.738;9.320;2023-02-21T05:37:57;13.02;;;6.10;;
23444;SDS011;11895;48.738;9.320;2023-02-21T05:40:25;19.65;;;6.55;;
23444;SDS011;11895;48.738;9.320;2023-02-21T05:42:53;12.38;;;5.93;;
23444;SDS011;11895;48.738;9.320;2023-02-21T05:45:20;8.88;;;5.53;;
23444;SDS011;11895;48.738;9.320;2023-02-21T05:47:48;9.90;;;5.47;;
23444;SDS011;11895;48.738;9.320;2023-02-21T05:50:15;13.38;;;6.22;;
23444;SDS011;11895;48.738;9.320;2023-02-21T05:52:43;15.15;;;6.60;;
23444;SDS011;11895;48.738;9.320;2023-02-21T05:55:11;11.68;;;5.97;;
23444;SDS011;11895;48.738;9.320;2023-02-21T05:57:38;15.10;;;7.25;;
23444;SDS011;11895;48.738;9.320;2023-02-21T06:00:06;13.07;;;6.80;;
23444;SDS011;11895;48.738;9.320;2023-02-21T06:02:51;14.85;;;6.82;;
23444;SDS011;11895;48.738;9.320;2023-02-21T06:05:20;19.53;;;7.43;;
23444;SDS011;11895;48.738;9.320;2023-02-21T06:07:49;14.13;;;6.82;;
23444;SDS011;11895;48.738;9.320;2023-02-21T06:10:17;12.82;;;7.10;;
23444;SDS011;11895;48.738;9.320;2023-02-21T06:12:45;13.55;;;6.97;;
23444;SDS011;11895;48.738;9.320;2023-02-21T06:15:13;14.30;;;6.57;;
23444;SDS011;11895;48.738;9.320;2023-02-21T06:17:42;16.40;;;7.40;;
23444;SDS011;11895;48.738;9.320;2023-02-21T06:20:10;18.08;;;6.78;;
23444;SDS011;11895;48.738;9.320;2023-02-21T06:22:40;15.45;;;6.93;;
23444;SDS011;11895;48.738;9.320;2023-02-21T06:25:08;14.25;;;6.57;;
23444;SDS011;11895;48.738;9.320;2023-02-21T06:27:37;19.10;;;6.43;;
23444;SDS011;11895;48.738;9.320;2023-02-21T06:30:05;22.45;;;7.35;;
23444;SDS011;11895;48.738;9.320;2023-02-21T06:32:33;14.17;;;6.57;;
23444;SDS011;11895;48.738;9.320;2023-02-21T06:35:01;14.45;;;6.90;;
23444;SDS011;11895;48.738;9.320;2023-02-21T06:37:31;15.45;;;7.10;;
23444;SDS011;11895;48.738;9.320;2023-02-21T06:39:59;16.10;;;6.70;;
23444;SDS011;11895;48.738;9.320;2023-02-21T06:42:31;15.30;;;6.65;;
23444;SDS011;11895;48.738;9.320;2023-02-21T06:44:59;19.73;;;7.22;;
23444;SDS011;11895;48.738;9.320;2023-02-21T06:47:26;14.98;;;7.22;;
23444;SDS011;11895;48.738;9.320;2023-02-21T06:49:54;18.20;;;6.82;;
23444;SDS011;11895;48.738;9.320;2023-02-21T06:52:22;15.77;;;7.03;;
23444;SDS011;11895;48.738;9.320;2023-02-21T06:54:50;14.27;;;7.18;;
23444;SDS011;11895;48.738;9.320;2023-02-21T06:57:17;19.47;;;8.27;;
23444;SDS011;11895;48.738;9.320;2023-02-21T06:59:45;20.75;;;7.22;;
23444;SDS011;11895;48.738;9.320;2023-02-21T07:02:16;21.40;;;9.05;;
23444;SDS011;11895;48.738;9.320;2023-02-21T07:04:45;23.65;;;8.32;;
23444;SDS011;11895;48.738;9.320;2023-02-21T07:07:14;26.75;;;9.02;;
23444;SDS011;11895;48.738;9.320;2023-02-21T07:09:41;18.15;;;7.93;;
23444;SDS011;11895;48.738;9.320;2023-02-21T07:12:09;21.15;;;7.57;;
23444;SDS011;11895;48.738;9.320;2023-02-21T07:14:37;28.65;;;7.93;;
23444;SDS011;11895;48.738;9.320;2023-02-21T07:17:04;18.63;;;7.65;;
23444;SDS011;11895;48.738;9.320;2023-02-21T07:19:32;21.10;;;7.75;;
23444;SDS011;11895;48.738;9.320;2023-02-21T07:22:00;29.40;;;8.57;;
23444;SDS011;11895;48.738;9.320;2023-02-21T07:24:27;22.90;;;8.98;;
23444;SDS011;11895;48.738;9.320;2023-02-21T07:26:55;19.10;;;7.85;;
23444;SDS011;11895;48.738;9.320;2023-02-21T07:29:23;35.83;;;9.18;;
23444;SDS011;11895;48.738;9.320;2023-02-21T07:31:51;32.58;;;8.00;;
23444;SDS011;11895;48.738;9.320;2023-02-21T07:34:19;29.98;;;8.63;;
23444;SDS011;11895;48.738;9.320;2023-02-21T07:39:16;23.42;;;9.05;;
23444;SDS011;11895;48.738;9.320;2023-02-21T07:41:44;17.13;;;7.65;;
23444;SDS011;11895;48.738;9.320;2023-02-21T07:44:21;18.90;;;8.30;;
23444;SDS011;11895;48.738;9.320;2023-02-21T07:46:48;21.88;;;7.45;;
23444;SDS011;11895;48.738;9.320;2023-02-21T07:49:16;19.40;;;8.30;;
23444;SDS011;11895;48.738;9.320;2023-02-21T07:51:44;21.63;;;8.35;;
23444;SDS011;11895;48.738;9.320;2023-02-21T07:54:11;25.55;;;8.38;;
23444;SDS011;11895;48.738;9.320;2023-02-21T07:56:43;18.92;;;8.25;;
23444;SDS011;11895;48.738;9.320;2023-02-21T07:59:12;24.70;;;8.50;;
23444;SDS011;11895;48.738;9.320;2023-02-21T08:01:41;38.00;;;9.02;;
23444;SDS011;11895;48.738;9.320;2023-02-21T08:04:09;33.50;;;8.57;;
23444;SDS011;11895;48.738;9.320;2023-02-21T08:06:36;25.77;;;8.35;;
23444;SDS011;11895;48.738;9.320;2023-02-21T08:09:04;18.55;;;6.95;;
23444;SDS011;11895;48.738;9.320;2023-02-21T08:11:32;16.85;;;7.50;;
23444;SDS011;11895;48.738;9.320;2023-02-21T08:14:02;25.83;;;8.43;;
23444;SDS011;11895;48.738;9.320;2023-02-21T08:16:30;20.45;;;7.10;;
23444;SDS011;11895;48.738;9.320;2023-02-21T08:19:00;18.65;;;7.28;;
23444;SDS011;11895;48.738;9.320;2023-02-21T08:21:28;20.15;;;6.90;;
23444;SDS011;11895;48.738;9.320;2023-02-21T08:23:55;14.23;;;6.60;;
23444;SDS011;11895;48.738;9.320;2023-02-21T08:26:23;12.75;;;6.90;;
23444;SDS011;11895;48.738;9.320;2023-02-21T08:28:51;17.55;;;6.30;;
23444;SDS011;11895;48.738;9.320;2023-02-21T08:31:18;16.85;;;7.03;;
23444;SDS011;11895;48.738;9.320;2023-02-21T08:33:46;13.55;;;6.82;;
23444;SDS011;11895;48.738;9.320;2023-02-21T08:36:17;11.32;;;5.72;;
23444;SDS011;11895;48.738;9.320;2023-02-21T08:38:44;16.95;;;5.82;;
23444;SDS011;11895;48.738;9.320;2023-02-21T08:41:12;21.40;;;6.47;;
23444;SDS011;11895;48.738;9.320;2023-02-21T08:43:41;13.27;;;6.05;;
23444;SDS011;11895;48.738;9.320;2023-02-21T08:46:09;19.20;;;5.60;;
23444;SDS011;11895;48.738;9.320;2023-02-21T08:48:37;15.60;;;5.65;;
23444;SDS011;11895;48.738;9.320;2023-02-21T08:51:04;11.20;;;5.07;;
23444;SDS011;11895;48.738;9.320;2023-02-21T08:53:32;16.50;;;6.13;;
23444;SDS011;11895;48.738;9.320;2023-02-21T08:55:59;11.00;;;5.80;;
23444;SDS011;11895;48.738;9.320;2023-02-21T08:58:27;12.07;;;5.20;;
23444;SDS011;11895;48.738;9.320;2023-02-21T09:00:55;13.10;;;5.88;;
23444;SDS011;11895;48.738;9.320;2023-02-21T09:03:23;19.48;;;5.20;;
23444;SDS011;11895;48.738;9.320;2023-02-21T09:05:50;15.60;;;4.90;;
23444;SDS011;11895;48.738;9.320;2023-02-21T09:08:18;13.10;;;6.00;;
23444;SDS011;11895;48.738;9.320;2023-02-21T09:10:47;11.40;;;5.03;;
23444;SDS011;11895;48.738;9.320;2023-02-21T09:13:15;15.57;;;5.68;;
23444;SDS011;11895;48.738;9.320;2023-02-21T09:15:42;14.85;;;5.45;;
23444;SDS011;11895;48.738;9.320;2023-02-21T09:18:10;9.60;;;5.50;;
23444;SDS011;11895;48.738;9.320;2023-02-21T09:20:38;13.60;;;4.93;;
23444;SDS011;11895;48.738;9.320;2023-02-21T09:23:07;11.52;;;5.18;;
23444;SDS011;11895;48.738;9.320;2023-02-21T09:25:35;8.73;;;4.93;;
23444;SDS011;11895;48.738;9.320;2023-02-21T09:28:03;10.57;;;4.88;;
23444;SDS011;11895;48.738;9.320;2023-02-21T09:30:31;11.43;;;5.25;;
23444;SDS011;11895;48.738;9.320;2023-02-21T09:32:58;15.10;;;5.97;;
23444;SDS011;11895;48.738;9.320;2023-02-21T09:35:26;20.48;;;6.00;;
23444;SDS011;11895;48.738;9.320;2023-02-21T09:40:49;13.25;;;5.45;;
23444;SDS011;11895;48.738;9.320;2023-02-21T09:46:01;16.15;;;6.05;;
23444;SDS011;11895;48.738;9.320;2023-02-21T09:48:34;18.20;;;5.88;;
23444;SDS011;11895;48.738;9.320;2023-02-21T09:51:03;14.55;;;5.75;;
23444;SDS011;11895;48.738;9.320;2023-02-21T09:53:35;17.25;;;5.05;;
23444;SDS011;11895;48.738;9.320;2023-02-21T09:58:56;10.32;;;5.20;;
23444;SDS011;11895;48.738;9.320;2023-02-21T10:04:04;18.48;;;5.55;;
23444;SDS011;11895;48.738;9.320;2023-02-21T10:20:21;11.48;;;5.28;;
23444;SDS011;11895;48.738;9.320;2023-02-21T10:22:58;9.93;;;4.67;;
23444;SDS011;11895;48.738;9.320;2023-02-21T10:25:30;8.93;;;4.45;;
23444;SDS011;11895;48.738;9.320;2023-02-21T10:28:02;14.20;;;4.97;;
23444;SDS011;11895;48.738;9.320;2023-02-21T10:30:34;15.80;;;4.30;;
23444;SDS011;11895;48.738;9.320;2023-02-21T10:33:06;8.80;;;4.35;;
23444;SDS011;11895;48.738;9.320;2023-02-21T10:35:37;13.50;;;3.67;;
23444;SDS011;11895;48.738;9.320;2023-02-21T10:38:06;12.90;;;3.85;;
23444;SDS011;11895;48.738;9.320;2023-02-21T10:40:41;13.55;;;5.13;;
23444;SDS011;11895;48.738;9.320;2023-02-21T10:48:50;14.30;;;4.28;;
23444;SDS011;11895;48.738;9.320;2023-02-21T10:51:29;14.63;;;5.18;;
23444;SDS011;11895;48.738;9.320;2023-02-21T10:54:17;12.85;;;4.40;;
23444;SDS011;11895;48.738;9.320;2023-02-21T10:56:51;16.40;;;5.10;;
23444;SDS011;11895;48.738;9.320;2023-02-21T10:59:21;12.38;;;3.90;;
23444;SDS011;11895;48.738;9.320;2023-02-21T11:01:58;20.92;;;4.72;;
23444;SDS011;11895;48.738;9.320;2023-02-21T11:04:31;14.32;;;4.20;;
23444;SDS011;11895;48.738;9.320;2023-02-21T11:07:07;9.85;;;3.55;;
23444;SDS011;11895;48.738;9.320;2023-02-21T11:09:39;9.73;;;3.85;;
23444;SDS011;11895;48.738;9.320;2023-02-21T11:17:21;10.68;;;4.47;;
23444;SDS011;11895;48.738;9.320;2023-02-21T11:19:55;13.23;;;4.33;;
23444;SDS011;11895;48.738;9.320;2023-02-21T11:22:43;8.90;;;3.90;;
23444;SDS011;11895;48.738;9.320;2023-02-21T11:33:41;10.73;;;3.55;;
23444;SDS011;11895;48.738;9.320;2023-02-21T11:36:26;12.30;;;3.50;;
23444;SDS011;11895;48.738;9.320;2023-02-21T11:42:00;9.52;;;3.40;;
23444;SDS011;11895;48.738;9.320;2023-02-21T11:55:27;4.90;;;1.38;;
23444;SDS011;11895;48.738;9.320;2023-02-21T12:01:16;4.95;;;1.40;;
23444;SDS011;11895;48.738;9.320;2023-02-21T12:06:53;3.97;;;1.60;;
23444;SDS011;11895;48.738;9.320;2023-02-21T12:21:25;2.55;;;1.20;;
23444;SDS011;11895;48.738;9.320;2023-02-21T12:27:29;3.38;;;1.10;;
23444;SDS011;11895;48.738;9.320;2023-02-21T12:36:25;4.22;;;1.48;;
23444;SDS011;11895;48.738;9.320;2023-02-21T12:48:33;3.25;;;1.40;;
23444;SDS011;11895;48.738;9.320;2023-02-21T12:51:16;2.75;;;1.33;;
23444;SDS011;11895;48.738;9.320;2023-02-21T12:53:59;4.25;;;1.45;;
23444;SDS011;11895;48.738;9.320;2023-02-21T13:05:40;2.25;;;1.10;;
23444;SDS011;11895;48.738;9.320;2023-02-21T13:11:32;3.80;;;1.20;;
23444;SDS011;11895;48.738;9.320;2023-02-21T13:14:22;4.10;;;1.65;;
23444;SDS011;11895;48.738;9.320;2023-02-21T13:17:01;2.33;;;1.10;;
23444;SDS011;11895;48.738;9.320;2023-02-21T13:19:35;5.35;;;1.05;;
23444;SDS011;11895;48.738;9.320;2023-02-21T13:29:35;2.05;;;1.02;;
23444;SDS011;11895;48.738;9.320;2023-02-21T13:32:10;3.10;;;1.08;;
23444;SDS011;11895;48.738;9.320;2023-02-21T13:35:00;1.48;;;1.10;;
23444;SDS011;11895;48.738;9.320;2023-02-21T13:37:33;4.40;;;1.20;;
23444;SDS011;11895;48.738;9.320;2023-02-21T13:40:18;4.83;;;1.33;;
23444;SDS011;11895;48.738;9.320;2023-02-21T13:43:05;4.75;;;0.90;;
23444;SDS011;11895;48.738;9.320;2023-02-21T13:45:38;2.80;;;0.70;;
23444;SDS011;11895;48.738;9.320;2023-02-21T13:55:34;2.13;;;1.20;;
23444;SDS011;11895;48.738;9.320;2023-02-21T14:19:53;2.22;;;0.90;;
23444;SDS011;11895;48.738;9.320;2023-02-21T14:22:20;3.45;;;0.88;;
23444;SDS011;11895;48.738;9.320;2023-02-21T14:25:07;3.83;;;0.73;;
23444;SDS011;11895;48.738;9.320;2023-02-21T14:27:49;2.38;;;0.65;;
23444;SDS011;11895;48.738;9.320;2023-02-21T14:30:25;1.00;;;0.63;;
23444;SDS011;11895;48.738;9.320;2023-02-21T14:32:59;4.97;;;0.55;;
23444;SDS011;11895;48.738;9.320;2023-02-21T14:35:59;1.45;;;0.88;;
23444;SDS011;11895;48.738;9.320;2023-02-21T14:38:36;5.50;;;1.05;;
23444;SDS011;11895;48.738;9.320;2023-02-21T14:41:12;1.77;;;0.90;;
23444;SDS011;11895;48.738;9.320;2023-02-21T14:44:15;5.28;;;0.60;;
23444;SDS011;11895;48.738;9.320;2023-02-21T14:49:56;1.10;;;0.60;;
23444;SDS011;11895;48.738;9.320;2023-02-21T14:52:52;1.63;;;0.65;;
23444;SDS011;11895;48.738;9.320;2023-02-21T14:58:53;3.40;;;0.68;;
23444;SDS011;11895;48.738;9.320;2023-02-21T15:02:25;1.95;;;0.93;;
23444;SDS011;11895;48.738;9.320;2023-02-21T15:08:21;2.65;;;1.10;;
23444;SDS011;11895;48.738;9.320;2023-02-21T15:10:58;4.43;;;1.30;;
23444;SDS011;11895;48.738;9.320;2023-02-21T15:13:30;0.50;;;0.43;;
23444;SDS011;11895;48.738;9.320;2023-02-21T15:16:04;1.75;;;0.60;;
23444;SDS011;11895;48.738;9.320;2023-02-21T15:18:38;4.10;;;0.80;;
23444;SDS011;11895;48.738;9.320;2023-02-21T15:21:25;4.70;;;1.27;;
23444;SDS011;11895;48.738;9.320;2023-02-21T15:27:06;2.22;;;1.70;;
23444;SDS011;11895;48.738;9.320;2023-02-21T15:29:39;7.05;;;2.15;;
23444;SDS011;11895;48.738;9.320;2023-02-21T15:32:09;3.92;;;2.10;;
23444;SDS011;11895;48.738;9.320;2023-02-21T15:34:39;4.40;;;1.90;;
23444;SDS011;11895;48.738;9.320;2023-02-21T15:39:54;7.35;;;1.33;;
23444;SDS011;11895;48.738;9.320;2023-02-21T15:42:31;4.32;;;1.17;;
23444;SDS011;11895;48.738;9.320;2023-02-21T15:45:02;3.00;;;0.93;;
23444;SDS011;11895;48.738;9.320;2023-02-21T15:48:03;2.75;;;1.00;;
23444;SDS011;11895;48.738;9.320;2023-02-21T15:50:35;6.45;;;1.30;;
23444;SDS011;11895;48.738;9.320;2023-02-21T15:53:19;2.35;;;1.23;;
23444;SDS011;11895;48.738;9.320;2023-02-21T15:55:50;3.88;;;1.20;;
23444;SDS011;11895;48.738;9.320;2023-02-21T15:58:24;5.28;;;1.23;;
23444;SDS011;11895;48.738;9.320;2023-02-21T16:01:03;1.80;;;1.00;;
23444;SDS011;11895;48.738;9.320;2023-02-21T16:03:42;2.22;;;1.10;;
23444;SDS011;11895;48.738;9.320;2023-02-21T16:06:19;1.70;;;1.20;;
23444;SDS011;11895;48.738;9.320;2023-02-21T16:14:36;3.70;;;1.15;;
23444;SDS011;11895;48.738;9.320;2023-02-21T16:17:31;1.77;;;1.13;;
23444;SDS011;11895;48.738;9.320;2023-02-21T16:22:40;3.42;;;1.05;;
23444;SDS011;11895;48.738;9.320;2023-02-21T16:25:32;3.47;;;1.20;;
23444;SDS011;11895;48.738;9.320;2023-02-21T16:28:00;5.05;;;1.83;;
23444;SDS011;11895;48.738;9.320;2023-02-21T16:30:32;8.02;;;3.58;;
23444;SDS011;11895;48.738;9.320;2023-02-21T16:33:02;3.38;;;1.83;;
23444;SDS011;11895;48.738;9.320;2023-02-21T16:35:31;4.43;;;2.10;;
23444;SDS011;11895;48.738;9.320;2023-02-21T16:37:59;3.22;;;2.00;;
23444;SDS011;11895;48.738;9.320;2023-02-21T16:40:31;5.53;;;2.40;;
23444;SDS011;11895;48.738;9.320;2023-02-21T16:43:02;4.22;;;2.30;;
23444;SDS011;11895;48.738;9.320;2023-02-21T16:47:59;4.50;;;1.67;;
23444;SDS011;11895;48.738;9.320;2023-02-21T16:50:35;5.55;;;1.98;;
23444;SDS011;11895;48.738;9.320;2023-02-21T16:53:06;3.35;;;1.75;;
23444;SDS011;11895;48.738;9.320;2023-02-21T16:55:38;2.53;;;1.67;;
23444;SDS011;11895;48.738;9.320;2023-02-21T16:58:14;5.25;;;1.67;;
23444;SDS011;11895;48.738;9.320;2023-02-21T17:01:00;5.65;;;2.00;;
23444;SDS011;11895;48.738;9.320;2023-02-21T17:03:34;7.60;;;2.85;;
23444;SDS011;11895;48.738;9.320;2023-02-21T17:06:01;9.52;;;3.03;;
23444;SDS011;11895;48.738;9.320;2023-02-21T17:08:30;5.82;;;2.70;;
23444;SDS011;11895;48.738;9.320;2023-02-21T17:10:58;5.18;;;2.25;;
23444;SDS011;11895;48.738;9.320;2023-02-21T17:13:25;6.38;;;3.20;;
23444;SDS011;11895;48.738;9.320;2023-02-21T17:15:52;4.82;;;2.90;;
23444;SDS011;11895;48.738;9.320;2023-02-21T17:18:20;7.00;;;3.00;;
23444;SDS011;11895;48.738;9.320;2023-02-21T17:20:47;14.35;;;3.72;;
23444;SDS011;11895;48.738;9.320;2023-02-21T17:23:14;10.98;;;4.38;;
23444;SDS011;11895;48.738;9.320;2023-02-21T17:25:43;7.75;;;3.88;;
23444;SDS011;11895;48.738;9.320;2023-02-21T17:28:10;15.75;;;4.13;;
23444;SDS011;11895;48.738;9.320;2023-02-21T17:30:37;11.68;;;4.40;;
23444;SDS011;11895;48.738;9.320;2023-02-21T17:33:05;12.30;;;3.80;;
23444;SDS011;11895;48.738;9.320;2023-02-21T17:35:33;16.40;;;6.50;;
23444;SDS011;11895;48.738;9.320;2023-02-21T17:38:01;14.05;;;4.75;;
23444;SDS011;11895;48.738;9.320;2023-02-21T17:40:29;8.45;;;3.65;;
23444;SDS011;11895;48.738;9.320;2023-02-21T17:42:56;13.82;;;4.47;;
23444;SDS011;11895;48.738;9.320;2023-02-21T17:45:24;10.43;;;4.15;;
23444;SDS011;11895;48.738;9.320;2023-02-21T17:47:52;15.18;;;4.38;;
23444;SDS011;11895;48.738;9.320;2023-02-21T17:50:22;13.18;;;5.68;;
23444;SDS011;11895;48.738;9.320;2023-02-21T17:52:51;14.60;;;5.03;;
23444;SDS011;11895;48.738;9.320;2023-02-21T17:55:20;10.85;;;4.78;;
23444;SDS011;11895;48.738;9.320;2023-02-21T17:57:55;11.25;;;5.18;;
23444;SDS011;11895;48.738;9.320;2023-02-21T18:00:24;16.85;;;7.95;;
23444;SDS011;11895;48.738;9.320;2023-02-21T18:02:54;17.80;;;7.32;;
23444;SDS011;11895;48.738;9.320;2023-02-21T18:05:22;15.88;;;8.13;;
23444;SDS011;11895;48.738;9.320;2023-02-21T18:07:50;15.68;;;9.25;;
23444;SDS011;11895;48.738;9.320;2023-02-21T18:10:21;16.33;;;9.32;;
23444;SDS011;11895;48.738;9.320;2023-02-21T18:12:51;10.35;;;6.18;;
23444;SDS011;11895;48.738;9.320;2023-02-21T18:15:20;9.43;;;5.37;;
23444;SDS011;11895;48.738;9.320;2023-02-21T18:17:53;10.30;;;4.43;;
23444;SDS011;11895;48.738;9.320;2023-02-21T18:20:21;8.75;;;4.38;;
23444;SDS011;11895;48.738;9.320;2023-02-21T18:22:50;8.60;;;4.28;;
23444;SDS011;11895;48.738;9.320;2023-02-21T18:25:17;8.52;;;4.88;;
23444;SDS011;11895;48.738;9.320;2023-02-21T18:27:46;9.10;;;4.57;;
23444;SDS011;11895;48.738;9.320;2023-02-21T18:30:14;12.10;;;4.50;;
23444;SDS011;11895;48.738;9.320;2023-02-21T18:32:45;11.90;;;4.93;;
23444;SDS011;11895;48.738;9.320;2023-02-21T18:35:16;8.53;;;4.53;;
23444;SDS011;11895;48.738;9.320;2023-02-21T18:37:44;13.57;;;5.88;;
23444;SDS011;11895;48.738;9.320;2023-02-21T18:40:14;12.80;;;5.10;;
23444;SDS011;11895;48.738;9.320;2023-02-21T18:42:44;13.32;;;5.10;;
23444;SDS011;11895;48.738;9.320;2023-02-21T18:45:16;10.38;;;4.95;;